Time;durP1;ratioP1;P1;durP2;ratioP2;P2;SDS_P1;SDS_P2;PMS_P1;PMS_P2;Temp;Humidity;BMP_temperature;BMP_pressure;BME280_temperature;BME280_humidity;BME280_pressure;Samples;Min_cycle;Max_cycle;Signal;HPM_P1;HPM_P2
2022/06/22 00:00:35;;;;;;;;;;;;;;;;;;2082327;28;20378;-45
2022/06/22 00:01:36;;;;;;;;;;;;;;;;;;2082445;28;19921;-43
2022/06/22 00:02:37;;;;;;;;;;;;;;;;;;2082098;28;19921;-44
2022/06/22 00:03:38;;;;;;;;;;;;;;;;;;2082334;28;19928;-44
2022/06/22 00:04:39;;;;;;;;;;;;;;;;;;2082248;28;19921;-44
2022/06/22 00:05:40;;;;;;;;;;;;;;;;;;2082232;28;19956;-44
2022/06/22 00:06:40;;;;;;;;;;;;;;;;;;2082175;28;19964;-45
2022/06/22 00:07:42;;;;;;;;;;;;;;;;;;2082144;28;20442;-44
2022/06/22 00:08:46;;;;;;;;;;;;;;;;;;2082132;28;20040;-44
2022/06/22 00:09:47;;;;;;;;;;;;;;;;;;2082322;28;19928;-44
2022/06/22 00:10:48;;;;;;;;;;;;;;;;;;2082026;28;20047;-44
2022/06/22 00:11:49;;;;;;;;;;;;;;;;;;2081934;28;19967;-44
2022/06/22 00:12:50;;;;;;;;;;;;;;;;;;2082292;28;19956;-45
2022/06/22 00:13:51;;;;;;;;;;;;;;;;;;2082106;28;19956;-44
2022/06/22 00:14:52;;;;;;;;;;;;;;;;;;2082115;28;20031;-44
2022/06/22 00:15:53;;;;;;;;;;;;;;;;;;2082060;28;19921;-44
2022/06/22 00:16:54;;;;;;;;;;;;;;;;;;2082227;28;19928;-44
2022/06/22 00:17:55;;;;;;;;;;;;;;;;;;2082150;28;19964;-45
2022/06/22 00:18:55;;;;;;;;;;;;;;;;;;2084470;28;19921;-44
2022/06/22 00:19:56;;;;;;;;;;;;;;;;;;2082848;28;19921;-44
2022/06/22 00:20:57;;;;;;;;;;;;;;;;;;2082069;28;20397;-44
2022/06/22 00:21:58;;;;;;;;;;;;;;;;;;2082245;28;20218;-44
2022/06/22 00:22:59;;;;;;;;;;;;;;;;;;2082021;28;20007;-44
2022/06/22 00:24:00;;;;;;;;;;;;;;;;;;2082204;28;19944;-44
2022/06/22 00:25:01;;;;;;;;;;;;;;;;;;2082037;28;19971;-44
2022/06/22 00:26:02;;;;;;;;;;;;;;;;;;2082011;28;19972;-44
2022/06/22 00:27:03;;;;;;;;;;;;;;;;;;2081978;28;20365;-44
2022/06/22 00:28:04;;;;;;;;;;;;;;;;;;2082045;28;19921;-44
2022/06/22 00:29:05;;;;;;;;;;;;;;;;;;2082284;28;19925;-44
2022/06/22 00:30:06;;;;;;;;;;;;;;;;;;2082140;28;19921;-44
2022/06/22 00:31:06;;;;;;;;;;;;;;;;;;2082044;28;19925;-44
2022/06/22 00:32:07;;;;;;;;;;;;;;;;;;2081993;28;20358;-46
2022/06/22 00:33:08;;;;;;;;;;;;;;;;;;2082044;28;19956;-47
2022/06/22 00:34:09;;;;;;;;;;;;;;;;;;2082016;28;19948;-47
2022/06/22 00:35:10;;;;;;;;;;;;;;;;;;2082130;28;20000;-46
2022/06/22 00:36:11;;;;;;;;;;;;;;;;;;2081839;28;20286;-47
2022/06/22 00:37:12;;;;;;;;;;;;;;;;;;2082144;28;20020;-46
2022/06/22 00:38:13;;;;;;;;;;;;;;;;;;2081962;28;19971;-47
2022/06/22 00:39:14;;;;;;;;;;;;;;;;;;2082076;28;19978;-46
2022/06/22 00:40:15;;;;;;;;;;;;;;;;;;2081931;28;19933;-46
2022/06/22 00:41:15;;;;;;;;;;;;;;;;;;2081879;28;19921;-46
2022/06/22 00:42:18;;;;;;;;;;;;;;;;;;2082050;28;20022;-47
2022/06/22 00:43:19;;;;;;;;;;;;;;;;;;2081787;28;19964;-46
2022/06/22 00:44:20;;;;;;;;;;;;;;;;;;2081258;28;19928;-46
2022/06/22 00:45:21;;;;;;;;;;;;;;;;;;2081132;28;19921;-47
2022/06/22 00:46:22;;;;;;;;;;;;;;;;;;2081181;28;20381;-48
2022/06/22 00:47:23;;;;;;;;;;;;;;;;;;2096680;28;19921;-46
2022/06/22 00:48:24;;;;;;;;;;;;;;;;;;2097986;28;19946;-47
2022/06/22 00:49:25;;;;;;;;;;;;;;;;;;2098380;28;20317;-46
2022/06/22 00:50:26;;;;;;;;;;;;;;;;;;2098552;28;19924;-46
2022/06/22 00:51:27;;;;;;;;;;;;;;;;;;2098264;28;20292;-48
2022/06/22 00:52:28;;;;;;;;;;;;;;;;;;2098357;28;19926;-46
2022/06/22 00:53:30;;;;;;;;;;;;;;;;;;2098450;28;19928;-46
2022/06/22 00:54:31;;;;;;;;;;;;;;;;;;2098342;28;20015;-46
2022/06/22 00:55:32;;;;;;;;;;;;;;;;;;2098420;28;20010;-47
2022/06/22 00:56:33;;;;;;;;;;;;;;;;;;2098252;28;20023;-47
2022/06/22 00:57:34;;;;;;;;;;;;;;;;;;2098449;28;20015;-47
2022/06/22 00:58:35;;;;;;;;;;;;;;;;;;2098413;28;20014;-49
2022/06/22 00:59:36;;;;;;;;;;;;;;;;;;2098375;28;20015;-46
2022/06/22 01:00:37;;;;;;;;;;;;;;;;;;2098325;28;20396;-48
2022/06/22 01:01:38;;;;;;;;;;;;;;;;;;2098274;28;19920;-46
2022/06/22 01:02:39;;;;;;;;;;;;;;;;;;2098486;28;20370;-48
2022/06/22 01:03:40;;;;;;;;;;;;;;;;;;2098376;28;19962;-47
2022/06/22 01:04:41;;;;;;;;;;;;;;;;;;2098343;28;19967;-47
2022/06/22 01:05:42;;;;;;;;;;;;;;;;;;2098500;28;19920;-44
2022/06/22 01:06:43;;;;;;;;;;;;;;;;;;2098324;28;20003;-44
2022/06/22 01:07:44;;;;;;;;;;;;;;;;;;2098292;28;19920;-44
2022/06/22 01:08:45;;;;;;;;;;;;;;;;;;2098362;28;20500;-45
2022/06/22 01:09:46;;;;;;;;;;;;;;;;;;2098373;28;20437;-44
2022/06/22 01:10:47;;;;;;;;;;;;;;;;;;2098342;28;19927;-44
2022/06/22 01:13:07;;;;;;;;;;;;;;;;;;2090231;28;20047;-43
2022/06/22 01:14:08;;;;;;;;;;;;;;;;;;2089894;28;19921;-44
2022/06/22 01:15:09;;;;;;;;;;;;;;;;;;2087777;28;19920;-45
2022/06/22 01:16:10;;;;;;;;;;;;;;;;;;2081665;28;19957;-44
2022/06/22 01:17:11;;;;;;;;;;;;;;;;;;2081864;28;20263;-44
2022/06/22 01:18:12;;;;;;;;;;;;;;;;;;2081672;28;19928;-44
2022/06/22 01:19:13;;;;;;;;;;;;;;;;;;2081721;28;19948;-45
2022/06/22 01:20:14;;;;;;;;;;;;;;;;;;2081941;28;20078;-44
2022/06/22 01:21:16;;;;;;;;;;;;;;;;;;2081637;28;20277;-44
2022/06/22 01:22:16;;;;;;;;;;;;;;;;;;2081848;28;19979;-44
2022/06/22 01:23:17;;;;;;;;;;;;;;;;;;2081783;28;20330;-44
2022/06/22 01:24:18;;;;;;;;;;;;;;;;;;2081677;28;20350;-45
2022/06/22 01:25:19;;;;;;;;;;;;;;;;;;2081740;28;19967;-44
2022/06/22 01:26:20;;;;;;;;;;;;;;;;;;2081886;28;19968;-44
2022/06/22 01:27:21;;;;;;;;;;;;;;;;;;2081571;28;19951;-44
2022/06/22 01:28:22;;;;;;;;;;;;;;;;;;2081882;28;20195;-47
2022/06/22 01:29:23;;;;;;;;;;;;;;;;;;2081734;28;20367;-47
2022/06/22 01:30:23;;;;;;;;;;;;;;;;;;2081609;28;20007;-46
2022/06/22 01:31:24;;;;;;;;;;;;;;;;;;2081593;28;19929;-46
2022/06/22 01:32:25;;;;;;;;;;;;;;;;;;2081665;28;19921;-46
2022/06/22 01:33:27;;;;;;;;;;;;;;;;;;2081730;28;20008;-46
2022/06/22 01:34:27;;;;;;;;;;;;;;;;;;2081634;28;20016;-46
2022/06/22 01:35:28;;;;;;;;;;;;;;;;;;2081958;28;20023;-46
2022/06/22 01:36:29;;;;;;;;;;;;;;;;;;2083559;28;19921;-46
2022/06/22 01:37:30;;;;;;;;;;;;;;;;;;2098239;28;20251;-48
2022/06/22 01:38:31;;;;;;;;;;;;;;;;;;2098092;28;20365;-46
2022/06/22 01:39:32;;;;;;;;;;;;;;;;;;2098014;28;19921;-46
2022/06/22 01:40:33;;;;;;;;;;;;;;;;;;2098109;28;20360;-46
2022/06/22 01:41:34;;;;;;;;;;;;;;;;;;2098153;28;19921;-46
2022/06/22 01:42:35;;;;;;;;;;;;;;;;;;2098269;28;19931;-46
2022/06/22 01:43:36;;;;;;;;;;;;;;;;;;2098089;28;20285;-46
2022/06/22 01:44:36;;;;;;;;;;;;;;;;;;2098374;28;19985;-44
2022/06/22 01:45:38;;;;;;;;;;;;;;;;;;2097985;28;19924;-44
2022/06/22 01:46:38;;;;;;;;;;;;;;;;;;2098023;28;20483;-44
2022/06/22 01:47:39;;;;;;;;;;;;;;;;;;2098077;28;19924;-44
2022/06/22 01:48:40;;;;;;;;;;;;;;;;;;2098388;28;20079;-46
2022/06/22 01:49:41;;;;;;;;;;;;;;;;;;2098006;28;20352;-47
2022/06/22 01:50:42;;;;;;;;;;;;;;;;;;2098272;28;20011;-46
2022/06/22 01:51:43;;;;;;;;;;;;;;;;;;2098273;28;19921;-45
2022/06/22 01:52:44;;;;;;;;;;;;;;;;;;2098034;28;19959;-44
2022/06/22 01:53:45;;;;;;;;;;;;;;;;;;2098044;28;20347;-45
2022/06/22 01:54:47;;;;;;;;;;;;;;;;;;2098044;28;20015;-44
2022/06/22 01:55:48;;;;;;;;;;;;;;;;;;2097909;28;20073;-44
2022/06/22 01:56:49;;;;;;;;;;;;;;;;;;2097970;28;19920;-45
2022/06/22 01:57:50;;;;;;;;;;;;;;;;;;2098038;28;20011;-44
2022/06/22 01:58:51;;;;;;;;;;;;;;;;;;2097948;28;20263;-44
2022/06/22 01:59:52;;;;;;;;;;;;;;;;;;2097759;28;20354;-45
2022/06/22 02:00:53;;;;;;;;;;;;;;;;;;2097571;28;19971;-44
2022/06/22 02:01:54;;;;;;;;;;;;;;;;;;2097882;28;19974;-45
2022/06/22 02:02:54;;;;;;;;;;;;;;;;;;2098165;28;19924;-44
2022/06/22 02:03:55;;;;;;;;;;;;;;;;;;2097911;28;20059;-45
2022/06/22 02:04:56;;;;;;;;;;;;;;;;;;2098082;28;19928;-44
2022/06/22 02:05:57;;;;;;;;;;;;;;;;;;2097919;28;19920;-45
2022/06/22 02:08:20;;;;;;;;;;;;;;;;;;2097913;28;19920;-43
2022/06/22 02:09:21;;;;;;;;;;;;;;;;;;2098234;28;19965;-43
2022/06/22 02:10:23;;;;;;;;;;;;;;;;;;2097851;28;19920;-46
2022/06/22 02:11:24;;;;;;;;;;;;;;;;;;2091159;28;20023;-44
2022/06/22 02:12:28;;;;;;;;;;;;;;;;;;2081288;28;19925;-44
2022/06/22 02:13:30;;;;;;;;;;;;;;;;;;2081432;28;19921;-45
2022/06/22 02:14:30;;;;;;;;;;;;;;;;;;2081714;28;19965;-46
2022/06/22 02:15:31;;;;;;;;;;;;;;;;;;2081414;28;20357;-47
2022/06/22 02:16:32;;;;;;;;;;;;;;;;;;2081265;28;19927;-47
2022/06/22 02:17:34;;;;;;;;;;;;;;;;;;2081406;28;19921;-46
2022/06/22 02:18:34;;;;;;;;;;;;;;;;;;2081588;28;20201;-46
2022/06/22 02:19:35;;;;;;;;;;;;;;;;;;2081571;28;20477;-44
2022/06/22 02:20:36;;;;;;;;;;;;;;;;;;2081509;28;20469;-44
2022/06/22 02:21:37;;;;;;;;;;;;;;;;;;2081398;28;19925;-44
2022/06/22 02:22:38;;;;;;;;;;;;;;;;;;2081366;28;19944;-44
2022/06/22 02:23:39;;;;;;;;;;;;;;;;;;2081425;28;19921;-44
2022/06/22 02:24:39;;;;;;;;;;;;;;;;;;2081375;28;19960;-45
2022/06/22 02:25:40;;;;;;;;;;;;;;;;;;2081477;28;19920;-44
2022/06/22 02:26:41;;;;;;;;;;;;;;;;;;2081230;28;19943;-44
2022/06/22 02:27:42;;;;;;;;;;;;;;;;;;2081523;28;19927;-47
2022/06/22 02:28:43;;;;;;;;;;;;;;;;;;2081297;28;20401;-47
2022/06/22 02:29:44;;;;;;;;;;;;;;;;;;2081438;28;20000;-47
2022/06/22 02:30:45;;;;;;;;;;;;;;;;;;2081411;28;19947;-47
2022/06/22 02:31:46;;;;;;;;;;;;;;;;;;2081239;28;20436;-47
2022/06/22 02:32:47;;;;;;;;;;;;;;;;;;2081449;28;19921;-47
2022/06/22 02:33:48;;;;;;;;;;;;;;;;;;2081409;28;19975;-47
2022/06/22 02:34:49;;;;;;;;;;;;;;;;;;2081333;28;19960;-47
2022/06/22 02:35:53;;;;;;;;;;;;;;;;;;2081222;28;19928;-47
2022/06/22 02:36:54;;;;;;;;;;;;;;;;;;2081501;28;19960;-47
2022/06/22 02:37:55;;;;;;;;;;;;;;;;;;2081166;28;20453;-47
2022/06/22 02:38:56;;;;;;;;;;;;;;;;;;2081343;28;20386;-46
2022/06/22 02:39:57;;;;;;;;;;;;;;;;;;2081265;28;19921;-47
2022/06/22 02:44:56;;;;;;;;;;;;;;;;;;2081339;28;20016;-46
2022/06/22 02:45:57;;;;;;;;;;;;;;;;;;2081351;28;19995;-44
2022/06/22 02:46:58;;;;;;;;;;;;;;;;;;2081087;28;20007;-44
2022/06/22 02:47:59;;;;;;;;;;;;;;;;;;2081266;28;19921;-44
2022/06/22 02:49:00;;;;;;;;;;;;;;;;;;2081291;28;19960;-44
2022/06/22 02:50:01;;;;;;;;;;;;;;;;;;2081120;28;20020;-44
2022/06/22 02:51:02;;;;;;;;;;;;;;;;;;2081265;28;19929;-43
2022/06/22 02:52:03;;;;;;;;;;;;;;;;;;2081166;28;20366;-46
2022/06/22 02:53:04;;;;;;;;;;;;;;;;;;2081545;28;19921;-45
2022/06/22 02:54:05;;;;;;;;;;;;;;;;;;2081172;28;20341;-44
2022/06/22 02:55:06;;;;;;;;;;;;;;;;;;2081307;28;19979;-44
2022/06/22 02:56:06;;;;;;;;;;;;;;;;;;2081342;28;20401;-46
2022/06/22 02:57:07;;;;;;;;;;;;;;;;;;2081357;28;19953;-44
2022/06/22 02:58:08;;;;;;;;;;;;;;;;;;2081512;28;20031;-45
2022/06/22 02:59:09;;;;;;;;;;;;;;;;;;2081297;28;19921;-44
2022/06/22 03:00:10;;;;;;;;;;;;;;;;;;2081145;28;19928;-44
2022/06/22 03:01:12;;;;;;;;;;;;;;;;;;2081208;28;19968;-44
2022/06/22 03:02:12;;;;;;;;;;;;;;;;;;2081009;28;19979;-44
2022/06/22 03:03:14;;;;;;;;;;;;;;;;;;2081270;28;20420;-45
2022/06/22 03:04:14;;;;;;;;;;;;;;;;;;2081125;28;20268;-44
2022/06/22 03:05:16;;;;;;;;;;;;;;;;;;2081368;28;19935;-46
2022/06/22 03:06:17;;;;;;;;;;;;;;;;;;2081023;28;19921;-44
2022/06/22 03:07:18;;;;;;;;;;;;;;;;;;2081294;28;20366;-44
2022/06/22 03:08:19;;;;;;;;;;;;;;;;;;2080921;28;20366;-47
2022/06/22 03:09:20;;;;;;;;;;;;;;;;;;2081344;28;19959;-44
2022/06/22 03:10:20;;;;;;;;;;;;;;;;;;2081144;28;19921;-44
2022/06/22 03:11:21;;;;;;;;;;;;;;;;;;2080950;28;20015;-44
2022/06/22 03:12:22;;;;;;;;;;;;;;;;;;2082684;28;19921;-46
2022/06/22 03:13:24;;;;;;;;;;;;;;;;;;2082521;28;19920;-47
2022/06/22 03:14:24;;;;;;;;;;;;;;;;;;2082426;28;20083;-46
2022/06/22 03:15:25;;;;;;;;;;;;;;;;;;2082654;28;19979;-47
2022/06/22 03:16:26;;;;;;;;;;;;;;;;;;2082596;28;20024;-47
2022/06/22 03:17:27;;;;;;;;;;;;;;;;;;2082409;28;20416;-46
2022/06/22 03:18:28;;;;;;;;;;;;;;;;;;2082760;28;20019;-44
2022/06/22 03:19:29;;;;;;;;;;;;;;;;;;2082618;28;20003;-44
2022/06/22 03:20:30;;;;;;;;;;;;;;;;;;2082584;28;20370;-47
2022/06/22 03:21:31;;;;;;;;;;;;;;;;;;2082530;28;19928;-46
2022/06/22 03:22:32;;;;;;;;;;;;;;;;;;2082513;28;20016;-48
2022/06/22 03:23:33;;;;;;;;;;;;;;;;;;2082597;28;20366;-47
2022/06/22 03:24:34;;;;;;;;;;;;;;;;;;2082507;28;19964;-47
2022/06/22 03:25:35;;;;;;;;;;;;;;;;;;2082515;28;20452;-46
2022/06/22 03:26:35;;;;;;;;;;;;;;;;;;2082501;28;19925;-44
2022/06/22 03:27:36;;;;;;;;;;;;;;;;;;2082357;28;19921;-45
2022/06/22 03:28:37;;;;;;;;;;;;;;;;;;2082386;28;20040;-45
2022/06/22 03:29:38;;;;;;;;;;;;;;;;;;2082516;28;19928;-47
2022/06/22 03:30:39;;;;;;;;;;;;;;;;;;2082670;28;20366;-44
2022/06/22 03:31:40;;;;;;;;;;;;;;;;;;2082236;28;19921;-44
2022/06/22 03:32:41;;;;;;;;;;;;;;;;;;2082356;28;19921;-45
2022/06/22 03:33:43;;;;;;;;;;;;;;;;;;2082342;28;20623;-45
2022/06/22 03:34:44;;;;;;;;;;;;;;;;;;2082512;28;20008;-44
2022/06/22 03:35:45;;;;;;;;;;;;;;;;;;2082365;28;20007;-44
2022/06/22 03:36:46;;;;;;;;;;;;;;;;;;2082503;28;20278;-44
2022/06/22 03:37:47;;;;;;;;;;;;;;;;;;2082612;28;19921;-46
2022/06/22 03:38:48;;;;;;;;;;;;;;;;;;2082199;28;19921;-47
2022/06/22 03:39:49;;;;;;;;;;;;;;;;;;2082513;28;19963;-46
2022/06/22 03:40:50;;;;;;;;;;;;;;;;;;2082313;28;20051;-46
2022/06/22 03:41:50;;;;;;;;;;;;;;;;;;2082234;28;20030;-46
2022/06/22 03:42:51;;;;;;;;;;;;;;;;;;2082315;28;19990;-47
2022/06/22 03:43:52;;;;;;;;;;;;;;;;;;2082349;28;19929;-46
2022/06/22 03:44:53;;;;;;;;;;;;;;;;;;2082686;28;19921;-47
2022/06/22 03:45:54;;;;;;;;;;;;;;;;;;2082234;28;20345;-46
2022/06/22 03:46:55;;;;;;;;;;;;;;;;;;2082271;28;20051;-46
2022/06/22 03:47:56;;;;;;;;;;;;;;;;;;2082328;28;19925;-47
2022/06/22 03:48:57;;;;;;;;;;;;;;;;;;2082436;28;20388;-46
2022/06/22 03:49:58;;;;;;;;;;;;;;;;;;2082252;28;20003;-48
2022/06/22 03:50:59;;;;;;;;;;;;;;;;;;2082096;28;20032;-47
2022/06/22 03:51:59;;;;;;;;;;;;;;;;;;2082205;28;19921;-47
2022/06/22 03:53:00;;;;;;;;;;;;;;;;;;2082422;28;20388;-46
2022/06/22 03:54:01;;;;;;;;;;;;;;;;;;2082369;28;20015;-46
2022/06/22 03:55:02;;;;;;;;;;;;;;;;;;2082628;28;19943;-48
2022/06/22 03:56:03;;;;;;;;;;;;;;;;;;2082370;28;20008;-47
2022/06/22 03:57:07;;;;;;;;;;;;;;;;;;2082522;28;20302;-46
2022/06/22 03:58:08;;;;;;;;;;;;;;;;;;2082382;28;20469;-44
2022/06/22 03:59:09;;;;;;;;;;;;;;;;;;2082399;28;19921;-44
2022/06/22 04:00:09;;;;;;;;;;;;;;;;;;2082240;28;20018;-44
2022/06/22 04:01:10;;;;;;;;;;;;;;;;;;2082191;28;19967;-44
2022/06/22 04:02:11;;;;;;;;;;;;;;;;;;2082499;28;20003;-46
2022/06/22 04:03:12;;;;;;;;;;;;;;;;;;2082445;28;20150;-44
2022/06/22 04:04:13;;;;;;;;;;;;;;;;;;2082128;28;20024;-44
2022/06/22 04:05:14;;;;;;;;;;;;;;;;;;2082226;28;19953;-44
2022/06/22 04:06:15;;;;;;;;;;;;;;;;;;2082075;28;19963;-43
2022/06/22 04:07:17;;;;;;;;;;;;;;;;;;2082169;28;19921;-44
2022/06/22 04:08:18;;;;;;;;;;;;;;;;;;2082193;28;20378;-44
2022/06/22 04:09:19;;;;;;;;;;;;;;;;;;2082314;28;19921;-50
2022/06/22 04:10:20;;;;;;;;;;;;;;;;;;2082155;28;20325;-47
2022/06/22 04:11:24;;;;;;;;;;;;;;;;;;2082097;28;19921;-46
2022/06/22 04:12:25;;;;;;;;;;;;;;;;;;2081988;28;20388;-46
2022/06/22 04:13:26;;;;;;;;;;;;;;;;;;2082277;28;19976;-46
2022/06/22 04:14:27;;;;;;;;;;;;;;;;;;2082142;28;20012;-48
2022/06/22 04:15:28;;;;;;;;;;;;;;;;;;2082130;28;20409;-46
2022/06/22 04:16:29;;;;;;;;;;;;;;;;;;2082141;28;19921;-46
2022/06/22 04:17:30;;;;;;;;;;;;;;;;;;2082263;28;19925;-46
2022/06/22 04:18:31;;;;;;;;;;;;;;;;;;2082369;28;20323;-47
2022/06/22 04:19:32;;;;;;;;;;;;;;;;;;2082135;28;20501;-48
2022/06/22 04:21:49;;;;;;;;;;;;;;;;;;2081885;28;20287;-46
2022/06/22 04:22:49;;;;;;;;;;;;;;;;;;2081914;28;20019;-48
2022/06/22 04:23:50;;;;;;;;;;;;;;;;;;2081525;28;20000;-48
2022/06/22 04:24:51;;;;;;;;;;;;;;;;;;2082197;28;20012;-46
2022/06/22 04:25:52;;;;;;;;;;;;;;;;;;2081986;28;20359;-47
2022/06/22 04:26:53;;;;;;;;;;;;;;;;;;2082409;28;20012;-44
2022/06/22 04:27:54;;;;;;;;;;;;;;;;;;2082080;28;19975;-45
2022/06/22 04:28:55;;;;;;;;;;;;;;;;;;2082127;28;20374;-44
2022/06/22 04:29:56;;;;;;;;;;;;;;;;;;2082210;28;20016;-47
2022/06/22 04:30:57;;;;;;;;;;;;;;;;;;2082208;28;20023;-47
2022/06/22 04:31:57;;;;;;;;;;;;;;;;;;2082049;28;20000;-46
2022/06/22 04:32:58;;;;;;;;;;;;;;;;;;2082163;28;20389;-46
2022/06/22 04:33:59;;;;;;;;;;;;;;;;;;2082133;28;19928;-46
2022/06/22 04:35:00;;;;;;;;;;;;;;;;;;2082009;28;20294;-46
2022/06/22 04:36:01;;;;;;;;;;;;;;;;;;2082208;28;19952;-47
2022/06/22 04:37:02;;;;;;;;;;;;;;;;;;2082131;28;20401;-43
2022/06/22 04:38:03;;;;;;;;;;;;;;;;;;2082093;28;19921;-44
2022/06/22 04:39:04;;;;;;;;;;;;;;;;;;2082050;28;20036;-44
2022/06/22 04:40:06;;;;;;;;;;;;;;;;;;2081935;28;20493;-44
2022/06/22 04:41:07;;;;;;;;;;;;;;;;;;2082011;28;19921;-45
2022/06/22 04:42:08;;;;;;;;;;;;;;;;;;2082064;28;20016;-44
2022/06/22 04:43:09;;;;;;;;;;;;;;;;;;2082078;28;19983;-44
2022/06/22 04:44:10;;;;;;;;;;;;;;;;;;2082075;28;19964;-43
2022/06/22 04:45:11;;;;;;;;;;;;;;;;;;2082185;28;19928;-48
2022/06/22 04:46:11;;;;;;;;;;;;;;;;;;2081877;28;20008;-47
2022/06/22 04:47:12;;;;;;;;;;;;;;;;;;2082277;28;19921;-44
2022/06/22 04:48:13;;;;;;;;;;;;;;;;;;2081905;28;19921;-43
2022/06/22 04:49:14;;;;;;;;;;;;;;;;;;2081991;28;19960;-44
2022/06/22 04:50:15;;;;;;;;;;;;;;;;;;2081866;28;20003;-44
2022/06/22 04:51:16;;;;;;;;;;;;;;;;;;2081939;28;19964;-45
2022/06/22 04:52:18;;;;;;;;;;;;;;;;;;2081703;28;19968;-43
2022/06/22 04:53:19;;;;;;;;;;;;;;;;;;2081898;28;20465;-44
2022/06/22 04:54:19;;;;;;;;;;;;;;;;;;2082029;28;20042;-44
2022/06/22 04:55:20;;;;;;;;;;;;;;;;;;2081791;28;19921;-43
2022/06/22 04:56:21;;;;;;;;;;;;;;;;;;2081951;28;19921;-44
2022/06/22 04:57:22;;;;;;;;;;;;;;;;;;2081887;28;20365;-44
2022/06/22 04:58:23;;;;;;;;;;;;;;;;;;2082004;28;19921;-44
2022/06/22 04:59:24;;;;;;;;;;;;;;;;;;2081907;28;19920;-43
2022/06/22 05:00:24;;;;;;;;;;;;;;;;;;2081926;28;19964;-47
2022/06/22 05:01:26;;;;;;;;;;;;;;;;;;2081798;28;19983;-47
2022/06/22 05:02:28;;;;;;;;;;;;;;;;;;2081799;28;19925;-43
2022/06/22 05:03:29;;;;;;;;;;;;;;;;;;2081797;28;20264;-44
2022/06/22 05:04:30;;;;;;;;;;;;;;;;;;2082009;28;19920;-47
2022/06/22 05:05:31;;;;;;;;;;;;;;;;;;2081963;28;20016;-46
2022/06/22 05:06:32;;;;;;;;;;;;;;;;;;2081987;28;20011;-45
2022/06/22 05:07:34;;;;;;;;;;;;;;;;;;2081870;28;19921;-44
2022/06/22 05:08:35;;;;;;;;;;;;;;;;;;2081821;28;20008;-44
2022/06/22 05:09:36;;;;;;;;;;;;;;;;;;2081930;28;19928;-44
2022/06/22 05:10:37;;;;;;;;;;;;;;;;;;2081748;28;19932;-43
2022/06/22 05:11:38;;;;;;;;;;;;;;;;;;2081535;28;19921;-44
2022/06/22 05:12:38;;;;;;;;;;;;;;;;;;2081842;28;20019;-47
2022/06/22 05:13:39;;;;;;;;;;;;;;;;;;2081899;28;19949;-47
2022/06/22 05:14:40;;;;;;;;;;;;;;;;;;2081841;28;20011;-46
2022/06/22 05:15:42;;;;;;;;;;;;;;;;;;2081920;28;20288;-46
2022/06/22 05:16:42;;;;;;;;;;;;;;;;;;2081941;28;20259;-46
2022/06/22 05:17:43;;;;;;;;;;;;;;;;;;2081872;28;19944;-45
2022/06/22 05:18:44;;;;;;;;;;;;;;;;;;2081836;28;19928;-46
2022/06/22 05:19:45;;;;;;;;;;;;;;;;;;2081661;28;20356;-46
2022/06/22 05:20:46;;;;;;;;;;;;;;;;;;2082011;28;20286;-45
2022/06/22 05:21:48;;;;;;;;;;;;;;;;;;2081732;28;19927;-46
2022/06/22 05:22:49;;;;;;;;;;;;;;;;;;2081862;28;20418;-43
2022/06/22 05:23:50;;;;;;;;;;;;;;;;;;2081674;28;19921;-42
2022/06/22 05:24:50;;;;;;;;;;;;;;;;;;2081851;28;19921;-42
2022/06/22 05:25:51;;;;;;;;;;;;;;;;;;2081938;28;20678;-46
2022/06/22 05:26:52;;;;;;;;;;;;;;;;;;2081607;28;19956;-46
2022/06/22 05:27:54;;;;;;;;;;;;;;;;;;2082033;28;20333;-46
2022/06/22 05:28:55;;;;;;;;;;;;;;;;;;2081901;28;19976;-43
2022/06/22 05:29:56;;;;;;;;;;;;;;;;;;2082288;28;19929;-43
2022/06/22 05:30:57;;;;;;;;;;;;;;;;;;2081815;28;19921;-47
2022/06/22 05:31:57;;;;;;;;;;;;;;;;;;2081534;28;20390;-46
2022/06/22 05:32:58;;;;;;;;;;;;;;;;;;2081884;28;19947;-43
2022/06/22 05:33:59;;;;;;;;;;;;;;;;;;2081758;28;20043;-44
2022/06/22 05:35:00;;;;;;;;;;;;;;;;;;2080675;28;19971;-44
2022/06/22 05:36:01;;;;;;;;;;;;;;;;;;2081462;28;20012;-44
2022/06/22 05:37:05;;;;;;;;;;;;;;;;;;2081967;28;19924;-44
2022/06/22 05:38:07;;;;;;;;;;;;;;;;;;2081720;28;20163;-47
2022/06/22 05:39:08;;;;;;;;;;;;;;;;;;2081815;28;20027;-44
2022/06/22 05:40:08;;;;;;;;;;;;;;;;;;2081595;28;20071;-44
2022/06/22 05:41:09;;;;;;;;;;;;;;;;;;2081575;28;19975;-44
2022/06/22 05:42:10;;;;;;;;;;;;;;;;;;2081502;28;19921;-44
2022/06/22 05:43:11;;;;;;;;;;;;;;;;;;2081935;28;19920;-43
2022/06/22 05:44:12;;;;;;;;;;;;;;;;;;2081753;28;20329;-47
2022/06/22 05:45:13;;;;;;;;;;;;;;;;;;2081801;28;19921;-47
2022/06/22 05:46:14;;;;;;;;;;;;;;;;;;2081488;28;20532;-47
2022/06/22 05:47:15;;;;;;;;;;;;;;;;;;2081733;28;20286;-46
2022/06/22 05:48:16;;;;;;;;;;;;;;;;;;2081766;28;19925;-44
2022/06/22 05:49:17;;;;;;;;;;;;;;;;;;2081901;28;19921;-46
2022/06/22 05:50:18;;;;;;;;;;;;;;;;;;2081871;28;19975;-46
2022/06/22 05:51:19;;;;;;;;;;;;;;;;;;2081620;28;19921;-46
2022/06/22 05:52:20;;;;;;;;;;;;;;;;;;2081449;28;20020;-47
2022/06/22 05:53:20;;;;;;;;;;;;;;;;;;2081732;28;19921;-46
2022/06/22 05:54:21;;;;;;;;;;;;;;;;;;2081559;28;20421;-46
2022/06/22 05:55:25;;;;;;;;;;;;;;;;;;2081624;28;19921;-46
2022/06/22 05:56:26;;;;;;;;;;;;;;;;;;2081264;28;19978;-49
2022/06/22 05:57:27;;;;;;;;;;;;;;;;;;2081458;28;20007;-47
2022/06/22 05:58:28;;;;;;;;;;;;;;;;;;2081636;28;19927;-47
2022/06/22 05:59:28;;;;;;;;;;;;;;;;;;2081619;28;19921;-47
2022/06/22 06:00:29;;;;;;;;;;;;;;;;;;2082086;28;19921;-44
2022/06/22 06:01:30;;;;;;;;;;;;;;;;;;2082026;28;19921;-48
2022/06/22 06:02:31;;;;;;;;;;;;;;;;;;2081571;28;19925;-44
2022/06/22 06:03:33;;;;;;;;;;;;;;;;;;2081642;28;19921;-44
2022/06/22 06:04:33;;;;;;;;;;;;;;;;;;2081488;28;19921;-44
2022/06/22 06:05:34;;;;;;;;;;;;;;;;;;2081385;28;19932;-44
2022/06/22 06:06:35;;;;;;;;;;;;;;;;;;2081397;28;20429;-44
2022/06/22 06:07:36;;;;;;;;;;;;;;;;;;2081721;28;19947;-44
2022/06/22 06:08:37;;;;;;;;;;;;;;;;;;2081493;28;20397;-44
2022/06/22 06:09:38;;;;;;;;;;;;;;;;;;2081441;28;19925;-44
2022/06/22 06:10:39;;;;;;;;;;;;;;;;;;2081426;28;19983;-44
2022/06/22 06:11:40;;;;;;;;;;;;;;;;;;2081311;28;19993;-42
2022/06/22 06:12:41;;;;;;;;;;;;;;;;;;2081485;28;19921;-43
2022/06/22 06:13:42;;;;;;;;;;;;;;;;;;2081456;28;20321;-44
2022/06/22 06:14:42;;;;;;;;;;;;;;;;;;2081273;28;20437;-44
2022/06/22 06:15:43;;;;;;;;;;;;;;;;;;2081781;28;19961;-42
2022/06/22 06:16:45;;;;;;;;;;;;;;;;;;2081683;28;20007;-42
2022/06/22 06:17:46;;;;;;;;;;;;;;;;;;2081562;28;19932;-43
2022/06/22 06:18:47;;;;;;;;;;;;;;;;;;2081398;28;20016;-43
2022/06/22 06:19:48;;;;;;;;;;;;;;;;;;2081496;28;19921;-43
2022/06/22 06:20:49;;;;;;;;;;;;;;;;;;2081531;28;19983;-46
2022/06/22 06:21:50;;;;;;;;;;;;;;;;;;2081386;28;19927;-47
2022/06/22 06:22:51;;;;;;;;;;;;;;;;;;2081338;28;19921;-46
2022/06/22 06:23:55;;;;;;;;;;;;;;;;;;2081267;28;19943;-47
2022/06/22 06:27:49;;;;;;;;;;;;;;;;;;2064125;28;20012;-47
2022/06/22 06:28:50;;;;;;;;;;;;;;;;;;2064285;28;19922;-43
2022/06/22 06:29:51;;;;;;;;;;;;;;;;;;2064053;28;19921;-44
2022/06/22 06:30:52;;;;;;;;;;;;;;;;;;2064250;28;19921;-43
2022/06/22 06:31:53;;;;;;;;;;;;;;;;;;2064086;28;19925;-44
2022/06/22 06:32:53;;;;;;;;;;;;;;;;;;2063997;28;20383;-43
2022/06/22 06:33:54;;;;;;;;;;;;;;;;;;2078676;28;19928;-48
2022/06/22 06:34:55;;;;;;;;;;;;;;;;;;2081307;28;19925;-49
2022/06/22 06:35:56;;;;;;;;;;;;;;;;;;2081345;28;19932;-48
2022/06/22 06:36:57;;;;;;;;;;;;;;;;;;2081957;28;19921;-45
2022/06/22 06:37:58;;;;;;;;;;;;;;;;;;2081964;28;19921;-42
2022/06/22 06:38:58;;;;;;;;;;;;;;;;;;2081239;28;19974;-44
2022/06/22 06:39:59;;;;;;;;;;;;;;;;;;2081763;28;20286;-47
2022/06/22 06:41:01;;;;;;;;;;;;;;;;;;2081351;28;19921;-43
2022/06/22 06:42:05;;;;;;;;;;;;;;;;;;2081176;28;20022;-44
2022/06/22 06:43:06;;;;;;;;;;;;;;;;;;2081834;28;19928;-46
2022/06/22 06:44:07;;;;;;;;;;;;;;;;;;2081394;28;19921;-47
2022/06/22 06:45:08;;;;;;;;;;;;;;;;;;2081231;28;19921;-46
2022/06/22 06:46:09;;;;;;;;;;;;;;;;;;2081342;28;20310;-47
2022/06/22 06:47:10;;;;;;;;;;;;;;;;;;2082553;28;20294;-47
2022/06/22 06:48:26;;;;;;;;;;;;;;;;;;2082947;28;20425;-46
2022/06/22 06:49:27;;;;;;;;;;;;;;;;;;2082753;28;19921;-47
2022/06/22 06:50:28;;;;;;;;;;;;;;;;;;2082569;28;20376;-46
2022/06/22 06:51:29;;;;;;;;;;;;;;;;;;2082763;28;19928;-44
2022/06/22 06:52:30;;;;;;;;;;;;;;;;;;2082703;28;19921;-46
2022/06/22 06:53:32;;;;;;;;;;;;;;;;;;2082609;28;19953;-46
2022/06/22 06:54:33;;;;;;;;;;;;;;;;;;2082648;28;20359;-47
2022/06/22 06:55:34;;;;;;;;;;;;;;;;;;2083113;28;19956;-43
2022/06/22 06:56:35;;;;;;;;;;;;;;;;;;2082413;28;19925;-46
2022/06/22 06:57:36;;;;;;;;;;;;;;;;;;2082737;28;20394;-44
2022/06/22 06:58:37;;;;;;;;;;;;;;;;;;2082543;28;19952;-45
2022/06/22 06:59:39;;;;;;;;;;;;;;;;;;2082543;28;19921;-44
2022/06/22 07:00:39;;;;;;;;;;;;;;;;;;2082457;28;19956;-43
2022/06/22 07:01:40;;;;;;;;;;;;;;;;;;2082649;28;19921;-42
2022/06/22 07:02:41;;;;;;;;;;;;;;;;;;2082413;28;19925;-42
2022/06/22 07:03:42;;;;;;;;;;;;;;;;;;2082650;28;19921;-42
2022/06/22 07:04:43;;;;;;;;;;;;;;;;;;2082738;28;20075;-44
2022/06/22 07:05:44;;;;;;;;;;;;;;;;;;2082481;28;19956;-45
2022/06/22 07:06:45;;;;;;;;;;;;;;;;;;2082468;28;19964;-43
2022/06/22 07:07:46;;;;;;;;;;;;;;;;;;2082745;28;20015;-44